sensor_id;sensor_type;location;lat;lon;timestamp;temperature;humidity
44190;DHT22;29856;52.144;5.430;2022-12-10T00:01:15;2.60;99.90
44190;DHT22;29856;52.144;5.430;2022-12-10T00:03:40;2.60;99.90
44190;DHT22;29856;52.144;5.430;2022-12-10T00:06:15;2.80;99.90
44190;DHT22;29856;52.144;5.430;2022-12-10T00:08:41;2.90;99.90
44190;DHT22;29856;52.144;5.430;2022-12-10T00:11:09;2.80;99.90
44190;DHT22;29856;52.144;5.430;2022-12-10T00:13:36;2.90;99.90
44190;DHT22;29856;52.144;5.430;2022-12-10T00:16:07;2.80;99.90
44190;DHT22;29856;52.144;5.430;2022-12-10T00:18:33;2.70;99.90
44190;DHT22;29856;52.144;5.430;2022-12-10T00:21:02;2.70;99.90
44190;DHT22;29856;52.144;5.430;2022-12-10T00:23:28;2.70;99.90
44190;DHT22;29856;52.144;5.430;2022-12-10T00:25:53;2.60;99.90
44190;DHT22;29856;52.144;5.430;2022-12-10T00:28:19;2.70;99.90
44190;DHT22;29856;52.144;5.430;2022-12-10T00:30:44;2.60;99.90
44190;DHT22;29856;52.144;5.430;2022-12-10T00:33:10;2.60;99.90
44190;DHT22;29856;52.144;5.430;2022-12-10T00:35:36;2.60;99.90
44190;DHT22;29856;52.144;5.430;2022-12-10T00:38:02;2.70;99.90
44190;DHT22;29856;52.144;5.430;2022-12-10T00:40:28;2.70;99.90
44190;DHT22;29856;52.144;5.430;2022-12-10T00:42:53;2.60;99.90
44190;DHT22;29856;52.144;5.430;2022-12-10T00:45:19;2.80;99.90
44190;DHT22;29856;52.144;5.430;2022-12-10T00:47:44;2.80;99.90
44190;DHT22;29856;52.144;5.430;2022-12-10T00:50:10;2.90;99.90
44190;DHT22;29856;52.144;5.430;2022-12-10T00:52:35;2.90;99.90
44190;DHT22;29856;52.144;5.430;2022-12-10T00:55:00;2.80;99.90
44190;DHT22;29856;52.144;5.430;2022-12-10T00:57:26;2.80;99.90
44190;DHT22;29856;52.144;5.430;2022-12-10T00:59:51;2.90;99.90
44190;DHT22;29856;52.144;5.430;2022-12-10T01:02:17;2.80;99.90
44190;DHT22;29856;52.144;5.430;2022-12-10T01:04:42;2.60;99.90
44190;DHT22;29856;52.144;5.430;2022-12-10T01:07:08;2.60;99.90
44190;DHT22;29856;52.144;5.430;2022-12-10T01:09:33;2.50;99.90
44190;DHT22;29856;52.144;5.430;2022-12-10T01:12:01;2.60;99.90
44190;DHT22;29856;52.144;5.430;2022-12-10T01:14:29;2.50;99.90
44190;DHT22;29856;52.144;5.430;2022-12-10T01:16:58;2.50;99.90
44190;DHT22;29856;52.144;5.430;2022-12-10T01:19:27;2.70;99.90
44190;DHT22;29856;52.144;5.430;2022-12-10T01:21:53;2.60;99.90
44190;DHT22;29856;52.144;5.430;2022-12-10T01:24:20;2.60;99.90
44190;DHT22;29856;52.144;5.430;2022-12-10T01:26:46;2.50;99.90
44190;DHT22;29856;52.144;5.430;2022-12-10T01:29:12;2.50;99.90
44190;DHT22;29856;52.144;5.430;2022-12-10T01:31:38;2.60;99.90
44190;DHT22;29856;52.144;5.430;2022-12-10T01:34:05;2.50;99.90
44190;DHT22;29856;52.144;5.430;2022-12-10T01:36:34;2.60;99.90
44190;DHT22;29856;52.144;5.430;2022-12-10T01:39:00;2.50;99.90
44190;DHT22;29856;52.144;5.430;2022-12-10T01:41:35;2.60;99.90
44190;DHT22;29856;52.144;5.430;2022-12-10T01:44:02;2.70;99.90
44190;DHT22;29856;52.144;5.430;2022-12-10T01:46:33;2.80;99.90
44190;DHT22;29856;52.144;5.430;2022-12-10T01:49:02;2.70;99.90
44190;DHT22;29856;52.144;5.430;2022-12-10T01:51:31;2.50;99.90
44190;DHT22;29856;52.144;5.430;2022-12-10T01:53:57;2.60;99.90
44190;DHT22;29856;52.144;5.430;2022-12-10T01:56:23;2.70;99.90
44190;DHT22;29856;52.144;5.430;2022-12-10T01:58:51;2.60;99.90
44190;DHT22;29856;52.144;5.430;2022-12-10T02:01:44;2.80;99.90
44190;DHT22;29856;52.144;5.430;2022-12-10T02:04:27;2.90;99.90
44190;DHT22;29856;52.144;5.430;2022-12-10T02:06:59;2.90;99.90
44190;DHT22;29856;52.144;5.430;2022-12-10T02:12:49;2.90;99.90
44190;DHT22;29856;52.144;5.430;2022-12-10T02:15:16;2.80;99.90
44190;DHT22;29856;52.144;5.430;2022-12-10T02:18:09;3.00;99.90
44190;DHT22;29856;52.144;5.430;2022-12-10T02:20:47;3.00;99.90
44190;DHT22;29856;52.144;5.430;2022-12-10T02:23:23;3.00;99.90
44190;DHT22;29856;52.144;5.430;2022-12-10T02:25:51;3.00;99.90
44190;DHT22;29856;52.144;5.430;2022-12-10T02:31:15;2.90;99.90
44190;DHT22;29856;52.144;5.430;2022-12-10T02:33:46;2.50;99.90
44190;DHT22;29856;52.144;5.430;2022-12-10T02:36:14;2.50;99.90
44190;DHT22;29856;52.144;5.430;2022-12-10T02:38:41;2.60;99.90
44190;DHT22;29856;52.144;5.430;2022-12-10T02:41:14;2.60;99.90
44190;DHT22;29856;52.144;5.430;2022-12-10T02:43:43;2.70;99.90
44190;DHT22;29856;52.144;5.430;2022-12-10T02:46:10;2.60;99.90
44190;DHT22;29856;52.144;5.430;2022-12-10T02:48:36;2.70;99.90
44190;DHT22;29856;52.144;5.430;2022-12-10T02:51:02;2.90;99.90
44190;DHT22;29856;52.144;5.430;2022-12-10T02:53:27;2.80;99.90
44190;DHT22;29856;52.144;5.430;2022-12-10T03:01:20;2.60;99.90
44190;DHT22;29856;52.144;5.430;2022-12-10T03:04:16;2.70;99.90
44190;DHT22;29856;52.144;5.430;2022-12-10T03:06:52;2.80;99.90
44190;DHT22;29856;52.144;5.430;2022-12-10T03:09:23;3.00;99.90
44190;DHT22;29856;52.144;5.430;2022-12-10T03:11:58;2.90;99.90
44190;DHT22;29856;52.144;5.430;2022-12-10T03:14:27;2.90;99.90
44190;DHT22;29856;52.144;5.430;2022-12-10T03:16:56;2.80;99.90
44190;DHT22;29856;52.144;5.430;2022-12-10T03:19:28;3.00;99.90
44190;DHT22;29856;52.144;5.430;2022-12-10T03:21:56;2.90;99.90
44190;DHT22;29856;52.144;5.430;2022-12-10T03:24:27;2.80;99.90
44190;DHT22;29856;52.144;5.430;2022-12-10T03:26:52;2.90;99.90
44190;DHT22;29856;52.144;5.430;2022-12-10T03:29:24;3.20;99.90
44190;DHT22;29856;52.144;5.430;2022-12-10T03:31:52;3.10;99.90
44190;DHT22;29856;52.144;5.430;2022-12-10T03:34:19;3.10;99.90
44190;DHT22;29856;52.144;5.430;2022-12-10T03:36:45;3.10;99.90
44190;DHT22;29856;52.144;5.430;2022-12-10T03:39:10;2.90;99.90
44190;DHT22;29856;52.144;5.430;2022-12-10T03:41:36;2.80;99.90
44190;DHT22;29856;52.144;5.430;2022-12-10T03:44:02;3.00;99.90
44190;DHT22;29856;52.144;5.430;2022-12-10T03:46:29;2.90;99.90
44190;DHT22;29856;52.144;5.430;2022-12-10T03:48:56;3.00;99.90
44190;DHT22;29856;52.144;5.430;2022-12-10T03:51:22;3.10;99.90
44190;DHT22;29856;52.144;5.430;2022-12-10T03:53:47;3.00;99.90
44190;DHT22;29856;52.144;5.430;2022-12-10T03:56:13;2.90;99.90
44190;DHT22;29856;52.144;5.430;2022-12-10T03:58:38;3.20;99.90
44190;DHT22;29856;52.144;5.430;2022-12-10T04:01:04;3.10;99.90
44190;DHT22;29856;52.144;5.430;2022-12-10T04:03:29;2.90;99.90
44190;DHT22;29856;52.144;5.430;2022-12-10T04:06:01;2.90;99.90
44190;DHT22;29856;52.144;5.430;2022-12-10T04:08:27;2.90;99.90
44190;DHT22;29856;52.144;5.430;2022-12-10T04:10:52;3.00;99.90
44190;DHT22;29856;52.144;5.430;2022-12-10T04:13:18;3.10;99.90
44190;DHT22;29856;52.144;5.430;2022-12-10T04:15:43;3.10;99.90
44190;DHT22;29856;52.144;5.430;2022-12-10T04:18:09;3.00;99.90
44190;DHT22;29856;52.144;5.430;2022-12-10T04:20:34;3.10;99.90
44190;DHT22;29856;52.144;5.430;2022-12-10T04:23:00;3.00;99.90
44190;DHT22;29856;52.144;5.430;2022-12-10T04:25:25;2.90;99.90
44190;DHT22;29856;52.144;5.430;2022-12-10T04:27:51;3.00;99.90
44190;DHT22;29856;52.144;5.430;2022-12-10T04:30:16;2.90;99.90
44190;DHT22;29856;52.144;5.430;2022-12-10T04:32:43;2.80;99.90
44190;DHT22;29856;52.144;5.430;2022-12-10T04:35:08;2.60;99.90
44190;DHT22;29856;52.144;5.430;2022-12-10T04:37:34;2.60;99.90
44190;DHT22;29856;52.144;5.430;2022-12-10T04:39:59;2.60;99.90
44190;DHT22;29856;52.144;5.430;2022-12-10T04:42:25;2.60;99.90
44190;DHT22;29856;52.144;5.430;2022-12-10T04:44:50;2.50;99.90
44190;DHT22;29856;52.144;5.430;2022-12-10T04:47:16;2.40;99.90
44190;DHT22;29856;52.144;5.430;2022-12-10T04:49:41;2.50;99.90
44190;DHT22;29856;52.144;5.430;2022-12-10T04:52:10;2.40;99.90
44190;DHT22;29856;52.144;5.430;2022-12-10T04:54:36;2.30;99.90
44190;DHT22;29856;52.144;5.430;2022-12-10T04:57:01;2.30;99.90
44190;DHT22;29856;52.144;5.430;2022-12-10T04:59:27;2.20;99.90
44190;DHT22;29856;52.144;5.430;2022-12-10T05:01:52;2.30;99.90
44190;DHT22;29856;52.144;5.430;2022-12-10T05:04:18;2.30;99.90
44190;DHT22;29856;52.144;5.430;2022-12-10T05:06:44;2.20;99.90
44190;DHT22;29856;52.144;5.430;2022-12-10T05:09:11;2.40;99.90
44190;DHT22;29856;52.144;5.430;2022-12-10T05:11:37;2.30;99.90
44190;DHT22;29856;52.144;5.430;2022-12-10T05:14:03;2.30;99.90
44190;DHT22;29856;52.144;5.430;2022-12-10T05:16:30;2.40;99.90
44190;DHT22;29856;52.144;5.430;2022-12-10T05:18:56;2.40;99.90
44190;DHT22;29856;52.144;5.430;2022-12-10T05:21:23;2.40;99.90
44190;DHT22;29856;52.144;5.430;2022-12-10T05:23:51;2.50;99.90
44190;DHT22;29856;52.144;5.430;2022-12-10T05:26:22;2.50;99.90
44190;DHT22;29856;52.144;5.430;2022-12-10T05:28:51;2.50;99.90
44190;DHT22;29856;52.144;5.430;2022-12-10T05:31:22;2.50;99.90
44190;DHT22;29856;52.144;5.430;2022-12-10T05:33:48;2.50;99.90
44190;DHT22;29856;52.144;5.430;2022-12-10T05:36:17;2.40;99.90
44190;DHT22;29856;52.144;5.430;2022-12-10T05:38:43;2.50;99.90
44190;DHT22;29856;52.144;5.430;2022-12-10T05:41:13;2.80;99.90
44190;DHT22;29856;52.144;5.430;2022-12-10T05:43:38;2.80;99.90
44190;DHT22;29856;52.144;5.430;2022-12-10T05:46:06;2.70;99.90
44190;DHT22;29856;52.144;5.430;2022-12-10T05:48:34;2.50;99.90
44190;DHT22;29856;52.144;5.430;2022-12-10T05:51:04;2.50;99.90
44190;DHT22;29856;52.144;5.430;2022-12-10T05:53:30;2.50;99.90
44190;DHT22;29856;52.144;5.430;2022-12-10T05:56:22;2.50;99.90
44190;DHT22;29856;52.144;5.430;2022-12-10T05:58:50;2.60;99.90
44190;DHT22;29856;52.144;5.430;2022-12-10T06:01:21;2.70;99.90
44190;DHT22;29856;52.144;5.430;2022-12-10T06:03:47;2.50;99.90
44190;DHT22;29856;52.144;5.430;2022-12-10T06:06:13;2.50;99.90
44190;DHT22;29856;52.144;5.430;2022-12-10T06:08:39;2.40;99.90
44190;DHT22;29856;52.144;5.430;2022-12-10T06:11:08;2.30;99.90
44190;DHT22;29856;52.144;5.430;2022-12-10T06:13:34;2.30;99.90
44190;DHT22;29856;52.144;5.430;2022-12-10T06:16:04;2.20;99.90
44190;DHT22;29856;52.144;5.430;2022-12-10T06:18:30;2.20;99.90
44190;DHT22;29856;52.144;5.430;2022-12-10T06:20:55;2.10;99.90
44190;DHT22;29856;52.144;5.430;2022-12-10T06:23:21;2.10;99.90
44190;DHT22;29856;52.144;5.430;2022-12-10T06:25:46;2.00;99.90
44190;DHT22;29856;52.144;5.430;2022-12-10T06:28:12;2.00;99.90
44190;DHT22;29856;52.144;5.430;2022-12-10T06:30:37;2.00;99.90
44190;DHT22;29856;52.144;5.430;2022-12-10T06:33:03;2.10;99.90
44190;DHT22;29856;52.144;5.430;2022-12-10T06:35:28;2.10;99.90
44190;DHT22;29856;52.144;5.430;2022-12-10T06:37:54;2.10;99.90
44190;DHT22;29856;52.144;5.430;2022-12-10T06:40:19;2.00;99.90
44190;DHT22;29856;52.144;5.430;2022-12-10T06:42:45;2.00;99.90
44190;DHT22;29856;52.144;5.430;2022-12-10T06:45:11;2.00;99.90
44190;DHT22;29856;52.144;5.430;2022-12-10T06:47:37;2.10;99.90
44190;DHT22;29856;52.144;5.430;2022-12-10T06:50:03;2.20;99.90
44190;DHT22;29856;52.144;5.430;2022-12-10T06:52:28;2.20;99.90
44190;DHT22;29856;52.144;5.430;2022-12-10T06:54:54;2.30;99.90
44190;DHT22;29856;52.144;5.430;2022-12-10T06:57:19;2.20;99.90
44190;DHT22;29856;52.144;5.430;2022-12-10T06:59:45;2.20;99.90
44190;DHT22;29856;52.144;5.430;2022-12-10T07:02:10;2.40;99.90
44190;DHT22;29856;52.144;5.430;2022-12-10T07:04:36;2.40;99.90
44190;DHT22;29856;52.144;5.430;2022-12-10T07:07:01;2.40;99.90
44190;DHT22;29856;52.144;5.430;2022-12-10T07:09:27;2.50;99.90
44190;DHT22;29856;52.144;5.430;2022-12-10T07:11:52;2.40;99.90
44190;DHT22;29856;52.144;5.430;2022-12-10T07:14:19;2.40;99.90
44190;DHT22;29856;52.144;5.430;2022-12-10T07:16:45;2.40;99.90
44190;DHT22;29856;52.144;5.430;2022-12-10T07:19:11;2.20;99.90
44190;DHT22;29856;52.144;5.430;2022-12-10T07:21:39;2.20;99.90
44190;DHT22;29856;52.144;5.430;2022-12-10T07:24:07;2.20;99.90
44190;DHT22;29856;52.144;5.430;2022-12-10T07:26:36;2.30;99.90
44190;DHT22;29856;52.144;5.430;2022-12-10T07:29:03;2.20;99.90
44190;DHT22;29856;52.144;5.430;2022-12-10T07:31:29;2.20;99.90
44190;DHT22;29856;52.144;5.430;2022-12-10T07:33:56;2.10;99.90
44190;DHT22;29856;52.144;5.430;2022-12-10T07:36:22;2.20;99.90
44190;DHT22;29856;52.144;5.430;2022-12-10T07:38:49;2.10;99.90
44190;DHT22;29856;52.144;5.430;2022-12-10T07:41:15;2.20;99.90
44190;DHT22;29856;52.144;5.430;2022-12-10T07:43:42;2.30;99.90
44190;DHT22;29856;52.144;5.430;2022-12-10T07:46:17;2.40;99.90
44190;DHT22;29856;52.144;5.430;2022-12-10T07:48:44;2.40;99.90
44190;DHT22;29856;52.144;5.430;2022-12-10T07:51:11;2.50;99.90
44190;DHT22;29856;52.144;5.430;2022-12-10T07:53:36;2.50;99.90
44190;DHT22;29856;52.144;5.430;2022-12-10T07:56:03;2.40;99.90
44190;DHT22;29856;52.144;5.430;2022-12-10T07:58:28;2.40;99.90
44190;DHT22;29856;52.144;5.430;2022-12-10T08:00:54;2.40;99.90
44190;DHT22;29856;52.144;5.430;2022-12-10T08:03:19;2.50;99.90
44190;DHT22;29856;52.144;5.430;2022-12-10T08:05:45;2.60;99.90
44190;DHT22;29856;52.144;5.430;2022-12-10T08:08:10;2.60;99.90
44190;DHT22;29856;52.144;5.430;2022-12-10T08:10:37;2.50;99.90
44190;DHT22;29856;52.144;5.430;2022-12-10T08:13:04;2.40;99.90
44190;DHT22;29856;52.144;5.430;2022-12-10T08:15:29;2.50;99.90
44190;DHT22;29856;52.144;5.430;2022-12-10T08:17:55;2.50;99.90
44190;DHT22;29856;52.144;5.430;2022-12-10T08:20:22;2.40;99.90
44190;DHT22;29856;52.144;5.430;2022-12-10T08:22:47;2.30;99.90
44190;DHT22;29856;52.144;5.430;2022-12-10T08:25:13;2.40;99.90
44190;DHT22;29856;52.144;5.430;2022-12-10T08:27:38;2.20;99.90
44190;DHT22;29856;52.144;5.430;2022-12-10T08:30:05;2.20;99.90
44190;DHT22;29856;52.144;5.430;2022-12-10T08:32:30;2.40;99.90
44190;DHT22;29856;52.144;5.430;2022-12-10T08:34:56;2.50;99.90
44190;DHT22;29856;52.144;5.430;2022-12-10T08:37:21;2.70;99.90
44190;DHT22;29856;52.144;5.430;2022-12-10T08:39:47;2.70;99.90
44190;DHT22;29856;52.144;5.430;2022-12-10T08:42:12;2.90;99.90
44190;DHT22;29856;52.144;5.430;2022-12-10T08:44:38;3.00;99.90
44190;DHT22;29856;52.144;5.430;2022-12-10T08:47:04;3.20;99.90
44190;DHT22;29856;52.144;5.430;2022-12-10T08:49:29;2.90;99.90
44190;DHT22;29856;52.144;5.430;2022-12-10T08:51:55;2.80;99.90
44190;DHT22;29856;52.144;5.430;2022-12-10T08:54:20;2.60;99.90
44190;DHT22;29856;52.144;5.430;2022-12-10T08:56:46;2.40;99.90
44190;DHT22;29856;52.144;5.430;2022-12-10T08:59:11;2.40;99.90
44190;DHT22;29856;52.144;5.430;2022-12-10T09:01:37;2.50;99.90
44190;DHT22;29856;52.144;5.430;2022-12-10T09:04:02;2.50;99.90
44190;DHT22;29856;52.144;5.430;2022-12-10T09:06:28;2.50;99.90
44190;DHT22;29856;52.144;5.430;2022-12-10T09:08:54;2.40;99.90
44190;DHT22;29856;52.144;5.430;2022-12-10T09:11:26;2.20;99.90
44190;DHT22;29856;52.144;5.430;2022-12-10T09:13:52;2.20;99.90
44190;DHT22;29856;52.144;5.430;2022-12-10T09:16:18;2.00;99.90
44190;DHT22;29856;52.144;5.430;2022-12-10T09:18:45;2.00;99.90
44190;DHT22;29856;52.144;5.430;2022-12-10T09:21:13;2.10;99.90
44190;DHT22;29856;52.144;5.430;2022-12-10T09:23:40;2.00;99.90
44190;DHT22;29856;52.144;5.430;2022-12-10T09:26:14;2.00;99.90
44190;DHT22;29856;52.144;5.430;2022-12-10T09:28:40;2.20;99.90
44190;DHT22;29856;52.144;5.430;2022-12-10T09:31:07;2.10;99.90
44190;DHT22;29856;52.144;5.430;2022-12-10T09:33:33;2.20;99.90
44190;DHT22;29856;52.144;5.430;2022-12-10T09:35:58;2.20;99.90
44190;DHT22;29856;52.144;5.430;2022-12-10T09:38:24;2.30;99.90
44190;DHT22;29856;52.144;5.430;2022-12-10T09:41:03;2.40;99.90
44190;DHT22;29856;52.144;5.430;2022-12-10T09:51:28;2.40;99.90
44190;DHT22;29856;52.144;5.430;2022-12-10T09:53:56;2.40;99.90
44190;DHT22;29856;52.144;5.430;2022-12-10T09:56:26;2.30;99.90
44190;DHT22;29856;52.144;5.430;2022-12-10T09:58:51;2.40;99.90
44190;DHT22;29856;52.144;5.430;2022-12-10T10:01:19;2.40;99.90
44190;DHT22;29856;52.144;5.430;2022-12-10T10:03:48;2.40;99.90
44190;DHT22;29856;52.144;5.430;2022-12-10T10:06:14;2.30;99.90
44190;DHT22;29856;52.144;5.430;2022-12-10T10:08:46;2.30;99.90
44190;DHT22;29856;52.144;5.430;2022-12-10T10:11:16;2.30;99.90
44190;DHT22;29856;52.144;5.430;2022-12-10T10:13:52;2.30;99.90
44190;DHT22;29856;52.144;5.430;2022-12-10T10:16:26;2.50;99.90
44190;DHT22;29856;52.144;5.430;2022-12-10T10:19:16;2.40;99.90
44190;DHT22;29856;52.144;5.430;2022-12-10T10:21:45;2.50;99.90
44190;DHT22;29856;52.144;5.430;2022-12-10T10:24:17;2.60;99.90
44190;DHT22;29856;52.144;5.430;2022-12-10T10:26:43;2.40;99.90
44190;DHT22;29856;52.144;5.430;2022-12-10T10:29:13;2.40;99.90
44190;DHT22;29856;52.144;5.430;2022-12-10T10:31:42;2.40;99.90
44190;DHT22;29856;52.144;5.430;2022-12-10T10:34:18;2.60;99.90
44190;DHT22;29856;52.144;5.430;2022-12-10T10:36:44;2.60;99.90
44190;DHT22;29856;52.144;5.430;2022-12-10T10:41:42;2.80;99.90
44190;DHT22;29856;52.144;5.430;2022-12-10T10:44:20;2.80;99.90
44190;DHT22;29856;52.144;5.430;2022-12-10T10:46:48;2.80;99.90
44190;DHT22;29856;52.144;5.430;2022-12-10T10:49:25;3.00;99.90
44190;DHT22;29856;52.144;5.430;2022-12-10T10:51:52;2.90;99.90
44190;DHT22;29856;52.144;5.430;2022-12-10T10:54:38;2.90;99.90
44190;DHT22;29856;52.144;5.430;2022-12-10T10:57:11;2.70;99.90
44190;DHT22;29856;52.144;5.430;2022-12-10T10:59:37;2.50;99.90
44190;DHT22;29856;52.144;5.430;2022-12-10T11:02:17;2.40;99.90
44190;DHT22;29856;52.144;5.430;2022-12-10T11:04:47;2.50;99.90
44190;DHT22;29856;52.144;5.430;2022-12-10T11:07:22;2.40;99.90
44190;DHT22;29856;52.144;5.430;2022-12-10T11:09:48;2.40;99.90
44190;DHT22;29856;52.144;5.430;2022-12-10T11:12:36;2.50;99.90
44190;DHT22;29856;52.144;5.430;2022-12-10T11:15:24;2.50;99.90
44190;DHT22;29856;52.144;5.430;2022-12-10T11:17:53;2.50;99.90
44190;DHT22;29856;52.144;5.430;2022-12-10T11:20:22;2.60;99.90
44190;DHT22;29856;52.144;5.430;2022-12-10T11:22:56;2.70;99.90
44190;DHT22;29856;52.144;5.430;2022-12-10T11:25:53;2.90;99.90
44190;DHT22;29856;52.144;5.430;2022-12-10T11:31:32;2.80;99.90
44190;DHT22;29856;52.144;5.430;2022-12-10T11:34:19;2.70;99.90
44190;DHT22;29856;52.144;5.430;2022-12-10T11:50:49;2.60;99.90
44190;DHT22;29856;52.144;5.430;2022-12-10T11:54:13;2.70;99.90
44190;DHT22;29856;52.144;5.430;2022-12-10T11:56:49;2.60;99.90
44190;DHT22;29856;52.144;5.430;2022-12-10T12:07:11;2.90;99.90
44190;DHT22;29856;52.144;5.430;2022-12-10T12:12:59;3.10;99.90
44190;DHT22;29856;52.144;5.430;2022-12-10T12:15:37;3.00;99.90
44190;DHT22;29856;52.144;5.430;2022-12-10T12:20:40;3.10;99.90
44190;DHT22;29856;52.144;5.430;2022-12-10T12:23:19;2.90;99.90
44190;DHT22;29856;52.144;5.430;2022-12-10T12:25:49;2.90;99.90
44190;DHT22;29856;52.144;5.430;2022-12-10T12:28:35;2.80;99.90
44190;DHT22;29856;52.144;5.430;2022-12-10T12:31:06;2.90;99.90
44190;DHT22;29856;52.144;5.430;2022-12-10T12:33:41;2.90;99.90
44190;DHT22;29856;52.144;5.430;2022-12-10T12:36:16;2.90;99.90
44190;DHT22;29856;52.144;5.430;2022-12-10T12:38:46;2.80;99.90
44190;DHT22;29856;52.144;5.430;2022-12-10T12:41:17;2.80;99.90
44190;DHT22;29856;52.144;5.430;2022-12-10T12:47:05;2.80;99.90
44190;DHT22;29856;52.144;5.430;2022-12-10T12:49:38;2.80;99.90
44190;DHT22;29856;52.144;5.430;2022-12-10T12:52:34;2.80;99.90
44190;DHT22;29856;52.144;5.430;2022-12-10T12:55:11;2.70;99.90
44190;DHT22;29856;52.144;5.430;2022-12-10T12:57:44;2.60;99.90
44190;DHT22;29856;52.144;5.430;2022-12-10T13:00:12;2.70;99.90
44190;DHT22;29856;52.144;5.430;2022-12-10T13:03:00;2.70;99.90
44190;DHT22;29856;52.144;5.430;2022-12-10T13:05:34;2.90;99.90
44190;DHT22;29856;52.144;5.430;2022-12-10T13:13:35;3.00;99.90
44190;DHT22;29856;52.144;5.430;2022-12-10T13:25:06;2.80;99.90
44190;DHT22;29856;52.144;5.430;2022-12-10T13:27:33;3.00;99.90
44190;DHT22;29856;52.144;5.430;2022-12-10T13:30:35;3.00;99.90
44190;DHT22;29856;52.144;5.430;2022-12-10T13:33:18;3.00;99.90
44190;DHT22;29856;52.144;5.430;2022-12-10T13:36:04;3.10;99.90
44190;DHT22;29856;52.144;5.430;2022-12-10T13:38:40;3.10;99.90
44190;DHT22;29856;52.144;5.430;2022-12-10T13:41:06;2.90;99.90
44190;DHT22;29856;52.144;5.430;2022-12-10T13:48:55;3.10;99.90
44190;DHT22;29856;52.144;5.430;2022-12-10T13:54:10;3.20;99.90
44190;DHT22;29856;52.144;5.430;2022-12-10T13:56:55;3.10;99.90
44190;DHT22;29856;52.144;5.430;2022-12-10T14:07:32;3.00;99.90
44190;DHT22;29856;52.144;5.430;2022-12-10T14:09:59;3.10;99.90
44190;DHT22;29856;52.144;5.430;2022-12-10T14:12:34;3.00;99.90
44190;DHT22;29856;52.144;5.430;2022-12-10T14:15:06;3.10;99.90
44190;DHT22;29856;52.144;5.430;2022-12-10T14:17:37;3.00;99.90
44190;DHT22;29856;52.144;5.430;2022-12-10T14:20:06;3.00;99.90
44190;DHT22;29856;52.144;5.430;2022-12-10T14:22:38;2.90;99.90
44190;DHT22;29856;52.144;5.430;2022-12-10T14:25:19;2.80;99.90
44190;DHT22;29856;52.144;5.430;2022-12-10T14:27:50;2.90;99.90
44190;DHT22;29856;52.144;5.430;2022-12-10T14:30:22;3.00;99.90
44190;DHT22;29856;52.144;5.430;2022-12-10T14:32:49;2.90;99.90
44190;DHT22;29856;52.144;5.430;2022-12-10T14:35:26;3.00;99.90
44190;DHT22;29856;52.144;5.430;2022-12-10T14:37:54;3.10;99.90
44190;DHT22;29856;52.144;5.430;2022-12-10T14:40:31;3.00;99.90
44190;DHT22;29856;52.144;5.430;2022-12-10T14:43:04;3.20;99.90
44190;DHT22;29856;52.144;5.430;2022-12-10T14:45:38;3.10;99.90
44190;DHT22;29856;52.144;5.430;2022-12-10T14:48:06;2.90;99.90
44190;DHT22;29856;52.144;5.430;2022-12-10T14:50:31;2.80;99.90
44190;DHT22;29856;52.144;5.430;2022-12-10T14:52:57;2.90;99.90
44190;DHT22;29856;52.144;5.430;2022-12-10T14:55:23;2.90;99.90
44190;DHT22;29856;52.144;5.430;2022-12-10T14:57:54;2.90;99.90
44190;DHT22;29856;52.144;5.430;2022-12-10T15:00:22;3.00;99.90
44190;DHT22;29856;52.144;5.430;2022-12-10T15:02:55;3.00;99.90
44190;DHT22;29856;52.144;5.430;2022-12-10T15:05:30;2.90;99.90
44190;DHT22;29856;52.144;5.430;2022-12-10T15:08:01;3.10;99.90
44190;DHT22;29856;52.144;5.430;2022-12-10T15:10:42;3.30;99.90
44190;DHT22;29856;52.144;5.430;2022-12-10T15:15:49;3.30;99.90
44190;DHT22;29856;52.144;5.430;2022-12-10T15:18:41;3.30;99.90
44190;DHT22;29856;52.144;5.430;2022-12-10T15:21:20;3.40;99.90
44190;DHT22;29856;52.144;5.430;2022-12-10T15:23:47;3.50;99.90
44190;DHT22;29856;52.144;5.430;2022-12-10T15:26:22;3.90;99.90
44190;DHT22;29856;52.144;5.430;2022-12-10T15:28:49;3.50;99.90
44190;DHT22;29856;52.144;5.430;2022-12-10T15:31:30;3.30;99.90
44190;DHT22;29856;52.144;5.430;2022-12-10T15:34:07;3.30;99.90
44190;DHT22;29856;52.144;5.430;2022-12-10T15:36:34;3.40;99.90
44190;DHT22;29856;52.144;5.430;2022-12-10T15:39:09;3.40;99.90
44190;DHT22;29856;52.144;5.430;2022-12-10T15:44:34;3.50;99.90
44190;DHT22;29856;52.144;5.430;2022-12-10T15:47:22;3.40;99.90
44190;DHT22;29856;52.144;5.430;2022-12-10T15:49:50;3.40;99.90
44190;DHT22;29856;52.144;5.430;2022-12-10T15:52:21;3.50;99.90
44190;DHT22;29856;52.144;5.430;2022-12-10T15:54:49;3.50;99.90
44190;DHT22;29856;52.144;5.430;2022-12-10T15:57:20;3.60;99.90
44190;DHT22;29856;52.144;5.430;2022-12-10T15:59:48;3.60;99.90
44190;DHT22;29856;52.144;5.430;2022-12-10T16:04:52;3.40;99.90
44190;DHT22;29856;52.144;5.430;2022-12-10T16:07:17;3.40;99.90
44190;DHT22;29856;52.144;5.430;2022-12-10T16:09:44;3.40;99.90
44190;DHT22;29856;52.144;5.430;2022-12-10T16:12:12;3.50;99.90
44190;DHT22;29856;52.144;5.430;2022-12-10T16:14:38;3.50;99.90
44190;DHT22;29856;52.144;5.430;2022-12-10T16:17:03;3.60;99.90
44190;DHT22;29856;52.144;5.430;2022-12-10T16:19:29;3.50;99.90
44190;DHT22;29856;52.144;5.430;2022-12-10T16:21:54;3.50;99.90
44190;DHT22;29856;52.144;5.430;2022-12-10T16:24:23;3.60;99.90
44190;DHT22;29856;52.144;5.430;2022-12-10T16:26:48;3.80;99.90
44190;DHT22;29856;52.144;5.430;2022-12-10T16:29:14;3.90;99.90
44190;DHT22;29856;52.144;5.430;2022-12-10T16:31:39;3.80;99.90
44190;DHT22;29856;52.144;5.430;2022-12-10T16:34:05;3.90;99.90
44190;DHT22;29856;52.144;5.430;2022-12-10T16:36:30;3.60;99.90
44190;DHT22;29856;52.144;5.430;2022-12-10T16:38:56;3.60;99.90
44190;DHT22;29856;52.144;5.430;2022-12-10T16:41:22;3.60;99.90
44190;DHT22;29856;52.144;5.430;2022-12-10T16:43:48;3.60;99.90
44190;DHT22;29856;52.144;5.430;2022-12-10T16:46:13;3.60;99.90
44190;DHT22;29856;52.144;5.430;2022-12-10T16:48:39;3.70;99.90
44190;DHT22;29856;52.144;5.430;2022-12-10T16:51:12;3.80;99.90
44190;DHT22;29856;52.144;5.430;2022-12-10T16:53:38;3.90;99.90
44190;DHT22;29856;52.144;5.430;2022-12-10T16:56:04;3.90;99.90
44190;DHT22;29856;52.144;5.430;2022-12-10T16:58:30;3.70;99.90
44190;DHT22;29856;52.144;5.430;2022-12-10T17:00:55;3.70;99.90
44190;DHT22;29856;52.144;5.430;2022-12-10T17:03:23;3.70;99.90
44190;DHT22;29856;52.144;5.430;2022-12-10T17:05:54;3.90;99.90
44190;DHT22;29856;52.144;5.430;2022-12-10T17:08:20;3.80;99.90
44190;DHT22;29856;52.144;5.430;2022-12-10T17:10:47;3.80;99.90
44190;DHT22;29856;52.144;5.430;2022-12-10T17:13:14;3.90;99.90
44190;DHT22;29856;52.144;5.430;2022-12-10T17:15:42;4.10;99.90
44190;DHT22;29856;52.144;5.430;2022-12-10T17:18:15;4.00;99.90
44190;DHT22;29856;52.144;5.430;2022-12-10T17:20:42;4.00;99.90
44190;DHT22;29856;52.144;5.430;2022-12-10T17:23:07;3.90;99.90
44190;DHT22;29856;52.144;5.430;2022-12-10T17:25:33;3.80;99.90
44190;DHT22;29856;52.144;5.430;2022-12-10T17:27:59;3.70;99.90
44190;DHT22;29856;52.144;5.430;2022-12-10T17:30:24;3.80;99.90
44190;DHT22;29856;52.144;5.430;2022-12-10T17:32:50;3.80;99.90